createdAt,value
2018-03-20T00:00:05.989Z,1002.11
2018-03-20T00:01:05.955Z,1002.11
2018-03-20T00:02:05.924Z,1002.06
2018-03-20T00:03:05.900Z,1002.10
2018-03-20T00:04:05.867Z,1002.11
2018-03-20T00:05:05.847Z,1002.09
2018-03-20T00:06:05.809Z,1002.09
2018-03-20T00:07:05.785Z,1002.09
2018-03-20T00:08:05.753Z,1002.09
2018-03-20T00:09:05.725Z,1001.99
2018-03-20T00:10:05.699Z,1002.02
2018-03-20T00:11:05.673Z,1001.95
2018-03-20T00:12:05.642Z,1001.97
2018-03-20T00:13:05.609Z,1001.94
2018-03-20T00:14:05.574Z,1001.97
2018-03-20T00:15:05.573Z,1001.97
2018-03-20T00:16:05.517Z,1002.02
2018-03-20T00:17:05.500Z,1001.97
2018-03-20T00:18:05.467Z,1002.01
2018-03-20T00:19:05.436Z,1002.03
2018-03-20T00:20:05.410Z,1002.05
2018-03-20T00:21:05.374Z,1002.04
2018-03-20T00:22:05.341Z,1002.07
2018-03-20T00:23:05.322Z,1002.02
2018-03-20T00:24:05.298Z,1002.05
2018-03-20T00:25:05.262Z,1002.06
2018-03-20T00:26:05.236Z,1002.08
2018-03-20T00:27:05.202Z,1002.06
2018-03-20T00:28:05.173Z,1002.08
2018-03-20T00:29:05.148Z,1002.08
2018-03-20T00:30:05.114Z,1002.11
2018-03-20T00:31:05.087Z,1002.06
2018-03-20T00:32:05.059Z,1002.07
2018-03-20T00:33:05.023Z,1002.04
2018-03-20T00:34:05.000Z,1002.06
2018-03-20T00:35:04.967Z,1002.13
2018-03-20T00:36:04.945Z,1002.10
2018-03-20T00:37:04.905Z,1002.11
2018-03-20T00:38:04.881Z,1002.12
2018-03-20T00:39:04.847Z,1002.11
2018-03-20T00:40:04.826Z,1002.15
2018-03-20T00:41:04.796Z,1002.18
2018-03-20T00:42:04.755Z,1002.21
2018-03-20T00:43:04.731Z,1002.26
2018-03-20T00:44:04.702Z,1002.22
2018-03-20T00:45:04.680Z,1002.22
2018-03-20T00:46:04.645Z,1002.23
2018-03-20T00:47:04.610Z,1002.19
2018-03-20T00:48:04.590Z,1002.18
2018-03-20T00:49:04.550Z,1002.16
2018-03-20T00:50:04.523Z,1002.17
2018-03-20T00:51:04.500Z,1002.16
2018-03-20T00:52:04.479Z,1002.19
2018-03-20T00:53:04.444Z,1002.19
2018-03-20T00:54:04.406Z,1002.19
2018-03-20T00:55:04.387Z,1002.20
2018-03-20T00:56:04.360Z,1002.17
2018-03-20T00:57:04.317Z,1002.22
2018-03-20T00:58:04.296Z,1002.20
2018-03-20T00:59:04.262Z,1002.21
2018-03-20T01:00:04.234Z,1002.26
2018-03-20T01:01:04.210Z,1002.26
2018-03-20T01:02:04.175Z,1002.28
2018-03-20T01:03:04.149Z,1002.31
2018-03-20T01:04:04.126Z,1002.35
2018-03-20T01:05:04.088Z,1002.34
2018-03-20T01:06:04.055Z,1002.38
2018-03-20T01:07:04.027Z,1002.40
2018-03-20T01:08:04.002Z,1002.38
2018-03-20T01:09:03.970Z,1002.39
2018-03-20T01:10:03.942Z,1002.36
2018-03-20T01:11:03.911Z,1002.41
2018-03-20T01:12:03.877Z,1002.40
2018-03-20T01:13:03.857Z,1002.40
2018-03-20T01:14:03.821Z,1002.38
2018-03-20T01:15:03.795Z,1002.42
2018-03-20T01:16:03.772Z,1002.43
2018-03-20T01:17:03.732Z,1002.45
2018-03-20T01:18:03.707Z,1002.47
2018-03-20T01:19:03.680Z,1002.45
2018-03-20T01:20:03.655Z,1002.45
2018-03-20T01:21:03.627Z,1002.43
2018-03-20T01:22:03.588Z,1002.45
2018-03-20T01:23:03.562Z,1002.43
2018-03-20T01:24:03.534Z,1002.43
2018-03-20T01:25:03.502Z,1002.45
2018-03-20T01:26:03.470Z,1002.38
2018-03-20T01:27:03.442Z,1002.36
2018-03-20T01:28:03.416Z,1002.35
2018-03-20T01:29:03.383Z,1002.32
2018-03-20T01:30:03.360Z,1002.29
2018-03-20T01:31:03.352Z,1002.25
2018-03-20T01:32:03.297Z,1002.25
2018-03-20T01:33:03.273Z,1002.26
2018-03-20T01:34:03.235Z,1002.25
2018-03-20T01:35:03.213Z,1002.25
2018-03-20T01:36:03.182Z,1002.20
2018-03-20T01:37:03.147Z,1002.24
2018-03-20T01:38:03.125Z,1002.23
2018-03-20T01:39:03.087Z,1002.30
2018-03-20T01:40:03.073Z,1002.27
2018-03-20T01:41:03.032Z,1002.25
2018-03-20T01:42:03.005Z,1002.23
2018-03-20T01:43:02.970Z,1002.20
2018-03-20T01:44:02.939Z,1002.16
2018-03-20T01:45:02.909Z,1002.06
2018-03-20T01:46:02.885Z,1002.01
2018-03-20T01:47:02.856Z,1002.03
2018-03-20T01:48:02.825Z,1002.02
2018-03-20T01:49:02.813Z,1002.06
2018-03-20T01:50:02.776Z,1002.04
2018-03-20T01:51:02.739Z,1002.02
2018-03-20T01:52:02.721Z,1001.97
2018-03-20T01:53:02.677Z,1002.02
2018-03-20T01:54:02.646Z,1002.02
2018-03-20T01:55:02.623Z,1002.03
2018-03-20T01:56:02.587Z,1002.04
2018-03-20T01:57:02.571Z,1002.05
2018-03-20T01:58:02.533Z,1002.01
2018-03-20T01:59:02.547Z,1001.98
2018-03-20T02:00:02.481Z,1001.95
2018-03-20T02:01:02.438Z,1002.03
2018-03-20T02:02:02.410Z,1002.01
2018-03-20T02:03:02.384Z,1002.07
2018-03-20T02:04:02.361Z,1002.11
2018-03-20T02:05:02.326Z,1002.12
2018-03-20T02:06:02.300Z,1002.05
2018-03-20T02:07:02.270Z,1002.02
2018-03-20T02:08:02.248Z,1002.03
2018-03-20T02:09:02.211Z,1002.07
2018-03-20T02:10:02.178Z,1002.09
2018-03-20T02:11:02.150Z,1002.07
2018-03-20T02:12:02.119Z,1002.05
2018-03-20T02:13:02.102Z,1002.06
2018-03-20T02:14:02.061Z,1002.04
2018-03-20T02:15:02.041Z,1002.03
2018-03-20T02:16:02.006Z,1002.03
2018-03-20T02:17:01.972Z,1002.00
2018-03-20T02:18:01.939Z,1001.98
2018-03-20T02:19:01.918Z,1001.98
2018-03-20T02:20:01.889Z,1001.98
2018-03-20T02:21:01.861Z,1001.94
2018-03-20T02:22:01.831Z,1002.03
2018-03-20T02:23:01.801Z,1002.07
2018-03-20T02:24:01.767Z,1002.02
2018-03-20T02:25:01.748Z,1002.08
2018-03-20T02:26:01.708Z,1002.07
2018-03-20T02:27:01.690Z,1002.05
2018-03-20T02:28:01.658Z,1002.03
2018-03-20T02:29:01.627Z,1002.02
2018-03-20T02:30:01.598Z,1002.00
2018-03-20T02:31:01.564Z,1002.00
2018-03-20T02:32:01.543Z,1002.00
2018-03-20T02:33:01.511Z,1002.06
2018-03-20T02:34:01.477Z,1002.07
2018-03-20T02:35:01.452Z,1002.09
2018-03-20T02:36:01.417Z,1002.10
2018-03-20T02:37:01.396Z,1002.07
2018-03-20T02:38:01.373Z,1002.09
2018-03-20T02:39:01.331Z,1002.09
2018-03-20T02:40:01.309Z,1002.09
2018-03-20T02:41:01.281Z,1002.07
2018-03-20T02:42:01.245Z,1002.03
2018-03-20T02:43:01.231Z,1002.01
2018-03-20T02:44:01.193Z,1001.99
2018-03-20T02:45:01.164Z,1001.97
2018-03-20T02:46:01.134Z,1001.95
2018-03-20T02:47:01.103Z,1001.92
2018-03-20T02:48:01.074Z,1001.83
2018-03-20T02:49:01.048Z,1001.77
2018-03-20T02:50:01.017Z,1001.70
2018-03-20T02:51:01.008Z,1001.68
2018-03-20T02:52:00.963Z,1001.72
2018-03-20T02:53:00.931Z,1001.73
2018-03-20T02:54:00.906Z,1001.72
2018-03-20T02:55:00.881Z,1001.77
2018-03-20T02:56:00.841Z,1001.79
2018-03-20T02:57:00.814Z,1001.82
2018-03-20T02:58:00.787Z,1001.82
2018-03-20T02:59:00.751Z,1001.82
2018-03-20T03:00:00.732Z,1001.90
2018-03-20T03:01:00.698Z,1001.94
2018-03-20T03:02:00.664Z,1001.91
2018-03-20T03:03:00.644Z,1001.93
2018-03-20T03:04:00.628Z,1001.92
2018-03-20T03:05:00.587Z,1001.96
2018-03-20T03:06:00.561Z,1002.01
2018-03-20T03:07:00.528Z,1002.02
2018-03-20T03:08:00.496Z,1002.04
2018-03-20T03:09:00.473Z,1002.02
2018-03-20T03:10:00.434Z,1002.02
2018-03-20T03:11:00.412Z,1002.01
2018-03-20T03:12:00.429Z,1001.96
2018-03-20T03:13:00.347Z,1001.96
2018-03-20T03:14:00.327Z,1001.93
2018-03-20T03:15:00.290Z,1001.92
2018-03-20T03:16:00.282Z,1001.92
2018-03-20T03:17:00.239Z,1001.93
2018-03-20T03:18:00.208Z,1001.91
2018-03-20T03:19:00.172Z,1001.90
2018-03-20T03:20:00.154Z,1001.88
2018-03-20T03:21:00.129Z,1001.85
2018-03-20T03:22:00.092Z,1001.87
2018-03-20T03:23:00.071Z,1001.86
2018-03-20T03:24:00.030Z,1001.92
2018-03-20T03:25:00.007Z,1001.90
2018-03-20T03:25:59.975Z,1001.89
2018-03-20T03:26:59.956Z,1001.89
2018-03-20T03:27:59.922Z,1001.89
2018-03-20T03:28:59.886Z,1001.84
2018-03-20T03:29:59.870Z,1001.85
2018-03-20T03:30:59.840Z,1001.88
2018-03-20T03:31:59.799Z,1001.86
2018-03-20T03:32:59.776Z,1001.84
2018-03-20T03:33:59.748Z,1001.79
2018-03-20T03:34:59.721Z,1001.79
2018-03-20T03:35:59.696Z,1001.80
2018-03-20T03:36:59.658Z,1001.78
2018-03-20T03:37:59.630Z,1001.81
2018-03-20T03:38:59.604Z,1001.80
2018-03-20T03:39:59.568Z,1001.85
2018-03-20T03:40:59.550Z,1001.84
2018-03-20T03:41:59.520Z,1001.82
2018-03-20T03:42:59.492Z,1001.80
2018-03-20T03:43:59.466Z,1001.78
2018-03-20T03:44:59.424Z,1001.79
2018-03-20T03:45:59.402Z,1001.77
2018-03-20T03:46:59.368Z,1001.80
2018-03-20T03:47:59.345Z,1001.78
2018-03-20T03:48:59.316Z,1001.79
2018-03-20T03:49:59.280Z,1001.76
2018-03-20T03:50:59.251Z,1001.78
2018-03-20T03:51:59.222Z,1001.79
2018-03-20T03:52:59.197Z,1001.76
2018-03-20T03:53:59.164Z,1001.74
2018-03-20T03:54:59.134Z,1001.71
2018-03-20T03:55:59.108Z,1001.70
2018-03-20T03:56:59.078Z,1001.70
2018-03-20T03:57:59.048Z,1001.72
2018-03-20T03:58:59.019Z,1001.67
2018-03-20T03:59:58.992Z,1001.65
2018-03-20T04:00:58.965Z,1001.66
2018-03-20T04:01:58.937Z,1001.65
2018-03-20T04:02:58.905Z,1001.67
2018-03-20T04:03:58.870Z,1001.68
2018-03-20T04:04:58.847Z,1001.65
2018-03-20T04:05:58.825Z,1001.68
2018-03-20T04:06:58.796Z,1001.63
2018-03-20T04:07:58.761Z,1001.66
2018-03-20T04:08:58.724Z,1001.70
2018-03-20T04:09:58.691Z,1001.67
2018-03-20T04:10:58.679Z,1001.65
2018-03-20T04:11:58.634Z,1001.66
2018-03-20T04:12:58.618Z,1001.67
2018-03-20T04:13:58.580Z,1001.70
2018-03-20T04:14:58.552Z,1001.69
2018-03-20T04:15:58.529Z,1001.69
2018-03-20T04:16:58.493Z,1001.70
2018-03-20T04:17:58.462Z,1001.70
2018-03-20T04:18:58.437Z,1001.73
2018-03-20T04:19:58.408Z,1001.67
2018-03-20T04:20:58.375Z,1001.69
2018-03-20T04:21:58.346Z,1001.67
2018-03-20T04:22:58.326Z,1001.67
2018-03-20T04:23:58.285Z,1001.67
2018-03-20T04:24:58.265Z,1001.64
2018-03-20T04:25:58.231Z,1001.64
2018-03-20T04:26:58.193Z,1001.68
2018-03-20T04:27:58.174Z,1001.69
2018-03-20T04:28:58.134Z,1001.69
2018-03-20T04:29:58.109Z,1001.69
2018-03-20T04:30:58.084Z,1001.67
2018-03-20T04:31:58.052Z,1001.63
2018-03-20T04:32:58.027Z,1001.62
2018-03-20T04:33:57.998Z,1001.60
2018-03-20T04:34:57.963Z,1001.60
2018-03-20T04:35:57.934Z,1001.57
2018-03-20T04:36:57.914Z,1001.55
2018-03-20T04:37:57.876Z,1001.57
2018-03-20T04:38:57.850Z,1001.58
2018-03-20T04:39:57.813Z,1001.55
2018-03-20T04:40:57.786Z,1001.54
2018-03-20T04:41:57.761Z,1001.54
2018-03-20T04:42:57.725Z,1001.50
2018-03-20T04:43:57.703Z,1001.51
2018-03-20T04:44:57.669Z,1001.52
2018-03-20T04:45:57.644Z,1001.52
2018-03-20T04:46:57.620Z,1001.57
2018-03-20T04:47:57.579Z,1001.52
2018-03-20T04:48:57.556Z,1001.49
2018-03-20T04:49:57.526Z,1001.52
2018-03-20T04:50:57.488Z,1001.51
2018-03-20T04:51:57.462Z,1001.47
2018-03-20T04:52:57.435Z,1001.53
2018-03-20T04:53:57.398Z,1001.55
2018-03-20T04:54:57.375Z,1001.52
2018-03-20T04:55:57.344Z,1001.53
2018-03-20T04:56:57.312Z,1001.50
2018-03-20T04:57:57.289Z,1001.48
2018-03-20T04:58:57.258Z,1001.49
2018-03-20T04:59:57.248Z,1001.47
2018-03-20T05:00:57.236Z,1001.45
2018-03-20T05:01:57.160Z,1001.52
2018-03-20T05:02:57.139Z,1001.47
2018-03-20T05:03:57.110Z,1001.45
2018-03-20T05:04:57.074Z,1001.50
2018-03-20T05:05:57.059Z,1001.48
2018-03-20T05:06:57.013Z,1001.53
2018-03-20T05:07:56.988Z,1001.55
2018-03-20T05:08:56.965Z,1001.59
2018-03-20T05:09:56.924Z,1001.58
2018-03-20T05:10:56.909Z,1001.56
2018-03-20T05:11:56.876Z,1001.60
2018-03-20T05:12:56.836Z,1001.65
2018-03-20T05:13:56.817Z,1001.71
2018-03-20T05:14:56.786Z,1001.67
2018-03-20T05:15:56.762Z,1001.68
2018-03-20T05:16:56.718Z,1001.72
2018-03-20T05:17:56.695Z,1001.69
2018-03-20T05:18:56.666Z,1001.72
2018-03-20T05:19:56.641Z,1001.73
2018-03-20T05:20:56.614Z,1001.78
2018-03-20T05:21:56.583Z,1001.78
2018-03-20T05:22:56.552Z,1001.79
2018-03-20T05:23:56.523Z,1001.72
2018-03-20T05:24:56.495Z,1001.74
2018-03-20T05:25:56.464Z,1001.77
2018-03-20T05:26:56.434Z,1001.77
2018-03-20T05:27:56.398Z,1001.77
2018-03-20T05:28:56.416Z,1001.83
2018-03-20T05:29:56.353Z,1001.75
2018-03-20T05:30:56.322Z,1001.81
2018-03-20T05:31:56.289Z,1001.81
2018-03-20T05:32:56.256Z,1001.80
2018-03-20T05:33:56.223Z,1001.81
2018-03-20T05:34:56.206Z,1001.83
2018-03-20T05:35:56.168Z,1001.84
2018-03-20T05:36:56.141Z,1001.82
2018-03-20T05:37:56.116Z,1001.80
2018-03-20T05:38:56.079Z,1001.77
2018-03-20T05:39:56.051Z,1001.80
2018-03-20T05:40:56.022Z,1001.74
2018-03-20T05:41:56.006Z,1001.81
2018-03-20T05:42:55.961Z,1001.73
2018-03-20T05:43:55.939Z,1001.72
2018-03-20T05:44:55.904Z,1001.77
2018-03-20T05:45:55.879Z,1001.79
2018-03-20T05:46:55.854Z,1001.75
2018-03-20T05:47:55.814Z,1001.73
2018-03-20T05:48:55.789Z,1001.68
2018-03-20T05:49:55.760Z,1001.75
2018-03-20T05:50:55.730Z,1001.73
2018-03-20T05:51:55.703Z,1001.81
2018-03-20T05:52:55.676Z,1001.81
2018-03-20T05:53:55.640Z,1001.84
2018-03-20T05:54:55.619Z,1001.90
2018-03-20T05:55:55.583Z,1001.86
2018-03-20T05:56:55.557Z,1001.85
2018-03-20T05:57:55.528Z,1001.77
2018-03-20T05:58:55.496Z,1001.81
2018-03-20T05:59:55.481Z,1001.79
2018-03-20T06:00:55.434Z,1001.79
2018-03-20T06:01:55.403Z,1001.86
2018-03-20T06:02:55.381Z,1001.83
2018-03-20T06:03:55.353Z,1001.94
2018-03-20T06:04:55.322Z,1002.00
2018-03-20T06:05:55.286Z,1001.97
2018-03-20T06:06:55.273Z,1002.04
2018-03-20T06:07:55.237Z,1002.09
2018-03-20T06:08:55.202Z,1002.13
2018-03-20T06:09:55.171Z,1002.07
2018-03-20T06:10:55.145Z,1002.10
2018-03-20T06:11:55.121Z,1002.09
2018-03-20T06:12:55.083Z,1002.08
2018-03-20T06:13:55.060Z,1002.08
2018-03-20T06:14:55.030Z,1002.15
2018-03-20T06:15:54.999Z,1002.10
2018-03-20T06:16:54.977Z,1002.13
2018-03-20T06:17:54.939Z,1002.16
2018-03-20T06:18:54.910Z,1002.19
2018-03-20T06:19:54.879Z,1002.22
2018-03-20T06:20:54.857Z,1002.17
2018-03-20T06:21:54.837Z,1002.19
2018-03-20T06:22:54.800Z,1002.22
2018-03-20T06:23:54.763Z,1002.24
2018-03-20T06:24:54.745Z,1002.26
2018-03-20T06:25:54.706Z,1002.30
2018-03-20T06:26:54.683Z,1002.29
2018-03-20T06:27:54.654Z,1002.33
2018-03-20T06:28:54.618Z,1002.34
2018-03-20T06:29:54.588Z,1002.39
2018-03-20T06:30:54.557Z,1002.33
2018-03-20T06:31:54.533Z,1002.36
2018-03-20T06:32:54.508Z,1002.38
2018-03-20T06:33:54.469Z,1002.40
2018-03-20T06:34:54.447Z,1002.40
2018-03-20T06:35:54.405Z,1002.35
2018-03-20T06:36:54.386Z,1002.39
2018-03-20T06:37:54.348Z,1002.36
2018-03-20T06:38:54.328Z,1002.36
2018-03-20T06:39:54.297Z,1002.35
2018-03-20T06:40:54.268Z,1002.40
2018-03-20T06:41:54.236Z,1002.43
2018-03-20T06:42:54.215Z,1002.37
2018-03-20T06:43:54.180Z,1002.38
2018-03-20T06:44:54.147Z,1002.35
2018-03-20T06:45:54.119Z,1002.35
2018-03-20T06:46:54.099Z,1002.37
2018-03-20T06:47:54.069Z,1002.33
2018-03-20T06:48:54.033Z,1002.36
2018-03-20T06:49:54.010Z,1002.38
2018-03-20T06:50:53.970Z,1002.43
2018-03-20T06:51:53.956Z,1002.39
2018-03-20T06:52:53.914Z,1002.35
2018-03-20T06:53:53.885Z,1002.41
2018-03-20T06:54:53.857Z,1002.41
2018-03-20T06:55:53.826Z,1002.31
2018-03-20T06:56:53.811Z,1002.33
2018-03-20T06:57:53.779Z,1002.32
2018-03-20T06:58:53.744Z,1002.31
2018-03-20T06:59:53.721Z,1002.29
2018-03-20T07:00:53.683Z,1002.28
2018-03-20T07:01:53.665Z,1002.30
2018-03-20T07:02:53.627Z,1002.27
2018-03-20T07:03:53.595Z,1002.28
2018-03-20T07:04:53.574Z,1002.28
2018-03-20T07:05:53.537Z,1002.30
2018-03-20T07:06:53.542Z,1002.32
2018-03-20T07:07:53.485Z,1002.31
2018-03-20T07:08:53.459Z,1002.37
2018-03-20T07:09:53.428Z,1002.34
2018-03-20T07:10:53.394Z,1002.34
2018-03-20T07:11:53.373Z,1002.31
2018-03-20T07:12:53.345Z,1002.34
2018-03-20T07:13:53.306Z,1002.37
2018-03-20T07:14:53.301Z,1002.37
2018-03-20T07:15:53.251Z,1002.43
2018-03-20T07:16:53.229Z,1002.44
2018-03-20T07:17:53.205Z,1002.43
2018-03-20T07:18:53.164Z,1002.43
2018-03-20T07:19:53.134Z,1002.42
2018-03-20T07:20:53.102Z,1002.45
2018-03-20T07:21:53.074Z,1002.46
2018-03-20T07:22:53.102Z,1002.48
2018-03-20T07:23:53.026Z,1002.47
2018-03-20T07:24:52.990Z,1002.49
2018-03-20T07:25:52.974Z,1002.54
2018-03-20T07:26:52.934Z,1002.54
2018-03-20T07:27:52.907Z,1002.56
2018-03-20T07:28:52.889Z,1002.56
2018-03-20T07:29:52.847Z,1002.62
2018-03-20T07:30:52.829Z,1002.59
2018-03-20T07:31:52.800Z,1002.63
2018-03-20T07:32:52.762Z,1002.69
2018-03-20T07:33:52.740Z,1002.71
2018-03-20T07:34:52.753Z,1002.75
2018-03-20T07:35:52.718Z,1002.77
2018-03-20T07:36:52.652Z,1002.76
2018-03-20T07:37:52.620Z,1002.73
2018-03-20T07:38:52.596Z,1002.75
2018-03-20T07:39:52.618Z,1002.82
2018-03-20T07:40:52.538Z,1002.81
2018-03-20T07:41:52.505Z,1002.78
2018-03-20T07:42:52.476Z,1002.74
2018-03-20T07:43:52.451Z,1002.78
2018-03-20T07:44:52.419Z,1002.77
2018-03-20T07:45:52.389Z,1002.80
2018-03-20T07:46:52.366Z,1002.78
2018-03-20T07:47:52.333Z,1002.82
2018-03-20T07:48:52.325Z,1002.91
2018-03-20T07:49:52.354Z,1002.90
2018-03-20T07:50:52.264Z,1002.87
2018-03-20T07:51:52.224Z,1002.92
2018-03-20T07:52:52.260Z,1002.98
2018-03-20T07:53:52.218Z,1002.97
2018-03-20T07:54:52.196Z,1002.98
2018-03-20T07:55:52.104Z,1003.06
2018-03-20T07:56:52.077Z,1003.12
2018-03-20T07:57:52.052Z,1003.15
2018-03-20T07:58:52.108Z,1003.22
2018-03-20T07:59:51.989Z,1003.18
2018-03-20T08:00:51.968Z,1003.20
2018-03-20T08:01:52.036Z,1003.23
2018-03-20T08:02:51.923Z,1003.23
2018-03-20T08:03:51.874Z,1003.28
2018-03-20T08:04:52.014Z,1003.27
2018-03-20T08:05:51.826Z,1003.30
2018-03-20T08:06:51.900Z,1003.25
2018-03-20T08:07:51.791Z,1003.31
2018-03-20T08:08:51.738Z,1003.28
2018-03-20T08:09:51.705Z,1003.32
2018-03-20T08:10:51.680Z,1003.27
2018-03-20T08:11:51.642Z,1003.34
2018-03-20T08:12:51.624Z,1003.35
2018-03-20T08:13:51.591Z,1003.34
2018-03-20T08:14:51.561Z,1003.31
2018-03-20T08:15:51.541Z,1003.29
2018-03-20T08:16:51.507Z,1003.33
2018-03-20T08:17:51.518Z,1003.38
2018-03-20T08:18:51.449Z,1003.29
2018-03-20T08:19:51.427Z,1003.37
2018-03-20T08:20:51.397Z,1003.34
2018-03-20T08:21:51.361Z,1003.35
2018-03-20T08:22:51.337Z,1003.37
2018-03-20T08:23:51.317Z,1003.42
2018-03-20T08:24:51.286Z,1003.36
2018-03-20T08:25:51.249Z,1003.42
2018-03-20T08:26:51.284Z,1003.42
2018-03-20T08:27:51.195Z,1003.42
2018-03-20T08:28:51.241Z,1003.48
2018-03-20T08:29:51.146Z,1003.48
2018-03-20T08:30:51.166Z,1003.43
2018-03-20T08:31:51.168Z,1003.50
2018-03-20T08:32:51.062Z,1003.47
2018-03-20T08:33:51.028Z,1003.53
2018-03-20T08:34:51.054Z,1003.52
2018-03-20T08:35:51.005Z,1003.51
2018-03-20T08:36:50.949Z,1003.54
2018-03-20T08:37:51.145Z,1003.56
2018-03-20T08:38:50.888Z,1003.60
2018-03-20T08:39:51.008Z,1003.59
2018-03-20T08:40:50.894Z,1003.67
2018-03-20T08:41:50.865Z,1003.66
2018-03-20T08:42:50.791Z,1003.65
2018-03-20T08:43:50.751Z,1003.63
2018-03-20T08:44:50.782Z,1003.67
2018-03-20T08:45:50.771Z,1003.69
2018-03-20T08:46:50.688Z,1003.67
2018-03-20T08:47:50.680Z,1003.68
2018-03-20T08:48:50.672Z,1003.71
2018-03-20T08:49:50.639Z,1003.71
2018-03-20T08:50:50.661Z,1003.67
2018-03-20T08:51:50.587Z,1003.74
2018-03-20T08:52:50.529Z,1003.83
2018-03-20T08:53:50.480Z,1003.82
2018-03-20T08:54:50.532Z,1003.80
2018-03-20T08:55:50.465Z,1003.79
2018-03-20T08:56:50.483Z,1003.93
2018-03-20T08:57:50.409Z,1003.88
2018-03-20T08:58:50.403Z,1003.88
2018-03-20T08:59:50.311Z,1003.91
2018-03-20T09:00:50.287Z,1003.97
2018-03-20T09:01:50.252Z,1003.96
2018-03-20T09:02:50.234Z,1003.91
2018-03-20T09:03:50.254Z,1003.93
2018-03-20T09:04:50.169Z,1003.94
2018-03-20T09:05:50.214Z,1004.18
2018-03-20T09:06:50.185Z,1003.98
2018-03-20T09:07:50.146Z,1003.93
2018-03-20T09:08:50.111Z,1004.03
2018-03-20T09:09:50.086Z,1003.97
2018-03-20T09:10:50.072Z,1004.03
2018-03-20T09:11:49.978Z,1004.04
2018-03-20T09:12:49.972Z,1004.06
2018-03-20T09:13:50.012Z,1003.91
2018-03-20T09:14:49.893Z,1004.04
2018-03-20T09:15:49.938Z,1004.05
2018-03-20T09:16:49.843Z,1003.95
2018-03-20T09:17:49.816Z,1003.96
2018-03-20T09:18:49.786Z,1004.06
2018-03-20T09:19:49.751Z,1004.06
2018-03-20T09:20:49.733Z,1004.14
2018-03-20T09:21:49.699Z,1004.10
2018-03-20T09:22:49.682Z,1004.10
2018-03-20T09:23:49.652Z,1004.14
2018-03-20T09:24:49.686Z,1004.12
2018-03-20T09:25:49.647Z,1004.13
2018-03-20T09:26:49.619Z,1004.13
2018-03-20T09:27:49.571Z,1004.12
2018-03-20T09:28:49.618Z,1004.13
2018-03-20T09:29:49.575Z,1004.13
2018-03-20T09:30:49.488Z,1004.13
2018-03-20T09:31:49.420Z,1004.15
2018-03-20T09:32:49.404Z,1004.17
2018-03-20T09:33:49.403Z,1004.15
2018-03-20T09:34:49.431Z,1004.22
2018-03-20T09:35:49.538Z,1004.28
2018-03-20T09:36:49.436Z,1004.25
2018-03-20T09:37:49.277Z,1004.30
2018-03-20T09:38:49.304Z,1004.24
2018-03-20T09:39:49.212Z,1004.44
2018-03-20T09:40:49.288Z,1004.30
2018-03-20T09:41:49.151Z,1004.49
2018-03-20T09:42:49.241Z,1004.38
2018-03-20T09:43:49.108Z,1004.32
2018-03-20T09:44:49.068Z,1004.56
2018-03-20T09:45:49.045Z,1004.39
2018-03-20T09:46:49.009Z,1004.36
2018-03-20T09:47:49.023Z,1004.41
2018-03-20T09:48:48.955Z,1004.45
2018-03-20T09:49:48.962Z,1004.54
2018-03-20T09:50:48.902Z,1004.49
2018-03-20T09:51:48.895Z,1004.37
2018-03-20T09:52:48.857Z,1004.37
2018-03-20T09:53:48.870Z,1004.64
2018-03-20T09:54:48.792Z,1004.50
2018-03-20T09:55:48.768Z,1004.43
2018-03-20T09:56:48.789Z,1004.53
2018-03-20T09:57:48.708Z,1004.50
2018-03-20T09:58:48.684Z,1004.57
2018-03-20T09:59:48.680Z,1004.57
2018-03-20T10:00:48.629Z,1004.58
2018-03-20T10:01:48.659Z,1004.58
2018-03-20T10:02:48.574Z,1004.62
2018-03-20T10:03:48.543Z,1004.65
2018-03-20T10:04:48.504Z,1004.60
2018-03-20T10:05:48.479Z,1004.65
2018-03-20T10:06:48.537Z,1004.71
2018-03-20T10:07:48.454Z,1004.77
2018-03-20T10:08:48.426Z,1004.73
2018-03-20T10:09:48.427Z,1004.67
2018-03-20T10:10:48.352Z,1004.76
2018-03-20T10:11:48.318Z,1004.78
2018-03-20T10:12:48.291Z,1004.87
2018-03-20T10:13:48.292Z,1004.84
2018-03-20T10:14:48.290Z,1004.87
2018-03-20T10:15:48.229Z,1005.05
2018-03-20T10:16:48.214Z,1004.90
2018-03-20T10:17:48.199Z,1004.83
2018-03-20T10:18:48.152Z,1004.95
2018-03-20T10:19:48.098Z,1004.92
2018-03-20T10:20:48.070Z,1004.92
2018-03-20T10:21:48.037Z,1004.91
2018-03-20T10:22:48.022Z,1005.08
2018-03-20T10:23:48.048Z,1004.97
2018-03-20T10:24:47.961Z,1005.04
2018-03-20T10:25:47.975Z,1005.09
2018-03-20T10:26:47.901Z,1005.02
2018-03-20T10:27:47.871Z,1005.04
2018-03-20T10:28:47.844Z,1005.07
2018-03-20T10:29:47.848Z,1005.08
2018-03-20T10:30:47.791Z,1005.11
2018-03-20T10:31:47.797Z,1005.24
2018-03-20T10:32:47.729Z,1005.06
2018-03-20T10:33:47.715Z,1005.16
2018-03-20T10:34:47.682Z,1005.18
2018-03-20T10:35:47.657Z,1005.32
2018-03-20T10:36:47.626Z,1005.15
2018-03-20T10:37:47.595Z,1005.21
2018-03-20T10:38:47.572Z,1005.15
2018-03-20T10:39:47.537Z,1005.10
2018-03-20T10:40:47.516Z,1005.25
2018-03-20T10:41:47.488Z,1005.21
2018-03-20T10:42:47.448Z,1005.20
2018-03-20T10:43:47.481Z,1005.13
2018-03-20T10:44:47.416Z,1005.26
2018-03-20T10:45:47.367Z,1005.12
2018-03-20T10:46:47.348Z,1005.18
2018-03-20T10:47:47.323Z,1005.19
2018-03-20T10:48:47.293Z,1005.15
2018-03-20T10:49:47.266Z,1005.19
2018-03-20T10:50:47.243Z,1005.16
2018-03-20T10:51:47.204Z,1005.13
2018-03-20T10:52:47.183Z,1005.28
2018-03-20T10:53:47.153Z,1005.22
2018-03-20T10:54:47.124Z,1005.17
2018-03-20T10:55:47.095Z,1005.27
2018-03-20T10:56:47.067Z,1005.31
2018-03-20T10:57:47.042Z,1005.33
2018-03-20T10:58:47.011Z,1005.29
2018-03-20T10:59:46.985Z,1005.33
2018-03-20T11:00:46.956Z,1005.33
2018-03-20T11:01:46.930Z,1005.41
2018-03-20T11:02:46.904Z,1005.31
2018-03-20T11:03:46.954Z,1005.58
2018-03-20T11:04:46.856Z,1005.43
2018-03-20T11:05:46.844Z,1005.33
2018-03-20T11:06:46.800Z,1005.43
2018-03-20T11:07:46.763Z,1005.38
2018-03-20T11:08:46.743Z,1005.41
2018-03-20T11:09:46.713Z,1005.38
2018-03-20T11:10:46.678Z,1005.54
2018-03-20T11:11:46.649Z,1005.37
2018-03-20T11:12:46.652Z,1005.40
2018-03-20T11:13:46.648Z,1005.52
2018-03-20T11:14:46.622Z,1005.34
2018-03-20T11:15:46.598Z,1005.42
2018-03-20T11:16:46.565Z,1005.43
2018-03-20T11:17:46.484Z,1005.42
2018-03-20T11:18:46.466Z,1005.48
2018-03-20T11:19:46.484Z,1005.54
2018-03-20T11:20:46.402Z,1005.48
2018-03-20T11:21:46.376Z,1005.42
2018-03-20T11:22:46.379Z,1005.60
2018-03-20T11:23:46.384Z,1005.55
2018-03-20T11:24:46.293Z,1005.47
2018-03-20T11:25:46.266Z,1005.50
2018-03-20T11:26:46.274Z,1005.45
2018-03-20T11:27:46.212Z,1005.56
2018-03-20T11:28:46.205Z,1005.54
2018-03-20T11:29:46.153Z,1005.50
2018-03-20T11:30:46.178Z,1005.47
2018-03-20T11:31:46.097Z,1005.55
2018-03-20T11:32:46.078Z,1005.51
2018-03-20T11:33:46.111Z,1005.46
2018-03-20T11:34:46.013Z,1005.50
2018-03-20T11:35:45.990Z,1005.50
2018-03-20T11:36:45.967Z,1005.50
2018-03-20T11:37:45.951Z,1005.53
2018-03-20T11:38:45.913Z,1005.58
2018-03-20T11:39:45.975Z,1005.50
2018-03-20T11:40:45.895Z,1005.47
2018-03-20T11:41:45.877Z,1005.50
2018-03-20T11:42:45.833Z,1005.57
2018-03-20T11:43:45.774Z,1005.61
2018-03-20T11:44:45.748Z,1005.67
2018-03-20T11:45:45.766Z,1005.62
2018-03-20T11:46:45.687Z,1005.71
2018-03-20T11:47:45.660Z,1005.61
2018-03-20T11:48:45.717Z,1005.61
2018-03-20T11:49:45.643Z,1005.65
2018-03-20T11:50:45.582Z,1005.72
2018-03-20T11:51:45.558Z,1005.63
2018-03-20T11:52:45.563Z,1005.77
2018-03-20T11:53:45.518Z,1005.79
2018-03-20T11:54:45.507Z,1005.62
2018-03-20T11:55:45.452Z,1005.67
2018-03-20T11:56:45.448Z,1005.72
2018-03-20T11:57:45.431Z,1005.67
2018-03-20T11:58:45.423Z,1005.79
2018-03-20T11:59:45.369Z,1005.67
2018-03-20T12:00:45.312Z,1005.79
2018-03-20T12:01:45.280Z,1005.76
2018-03-20T12:02:45.246Z,1005.84
2018-03-20T12:03:45.229Z,1005.72
2018-03-20T12:04:45.195Z,1005.74